Time;durP1;ratioP1;P1;durP2;ratioP2;P2;SDS_P1;SDS_P2;PMS_P1;PMS_P2;Temp;Humidity;BMP_temperature;BMP_pressure;BME280_temperature;BME280_humidity;BME280_pressure;Samples;Min_cycle;Max_cycle;Signal;HPM_P1;HPM_P2
2022/11/20 00:01:32;;;;;;;14.77;4.65;;;;;;;;;;4979248;28;20022;-61
2022/11/20 00:03:59;;;;;;;12.55;5.40;;;;;;;;;;4972356;28;20059;-61
2022/11/20 00:06:25;;;;;;;33.42;10.57;;;;;;;;;;4986861;28;20039;-61
2022/11/20 00:08:54;;;;;;;10.90;3.92;;;;;;;;;;4977197;28;20026;-61
2022/11/20 00:11:21;;;;;;;8.73;3.15;;;;;;;;;;4987456;28;20311;-61
2022/11/20 00:13:49;;;;;;;5.47;3.10;;;;;;;;;;4986020;28;20030;-61
2022/11/20 00:16:16;;;;;;;10.93;3.88;;;;;;;;;;4988807;28;20109;-61
2022/11/20 00:18:42;;;;;;;8.68;3.38;;;;;;;;;;4975361;28;20022;-61
2022/11/20 00:21:12;;;;;;;7.25;2.88;;;;;;;;;;4986827;28;20046;-62
2022/11/20 00:23:38;;;;;;;8.52;2.92;;;;;;;;;;4990017;28;20022;-61
2022/11/20 00:26:08;;;;;;;12.85;3.95;;;;;;;;;;4975019;28;20031;-61
2022/11/20 00:28:34;;;;;;;8.50;2.50;;;;;;;;;;4989795;28;20473;-61
2022/11/20 00:31:14;;;;;;;8.13;3.55;;;;;;;;;;4983388;28;20019;-61
2022/11/20 00:33:40;;;;;;;14.35;4.57;;;;;;;;;;4982559;28;20431;-61
2022/11/20 00:36:11;;;;;;;4.25;1.65;;;;;;;;;;4974627;28;20035;-61
2022/11/20 00:38:37;;;;;;;8.30;2.05;;;;;;;;;;4971204;28;20031;-61
2022/11/20 00:41:09;;;;;;;5.55;1.73;;;;;;;;;;4977593;28;20046;-61
2022/11/20 00:43:35;;;;;;;6.63;1.77;;;;;;;;;;4978847;28;20034;-62
2022/11/20 00:46:09;;;;;;;7.35;1.90;;;;;;;;;;4985126;28;20029;-61
2022/11/20 00:48:35;;;;;;;10.00;1.95;;;;;;;;;;4973818;28;20030;-61
2022/11/20 00:51:01;;;;;;;7.07;1.75;;;;;;;;;;4983256;28;20118;-61
2022/11/20 00:53:28;;;;;;;7.15;1.73;;;;;;;;;;4979884;28;20499;-61
2022/11/20 00:55:54;;;;;;;5.55;1.77;;;;;;;;;;4976173;28;20106;-61
2022/11/20 00:58:20;;;;;;;7.95;1.65;;;;;;;;;;4984494;28;20483;-62
2022/11/20 01:00:46;;;;;;;7.65;1.65;;;;;;;;;;4970545;28;20509;-61
2022/11/20 01:03:13;;;;;;;3.97;1.60;;;;;;;;;;4978032;28;20073;-61
2022/11/20 01:05:39;;;;;;;2.97;1.45;;;;;;;;;;4978642;28;20476;-61
2022/11/20 01:08:05;;;;;;;9.95;2.17;;;;;;;;;;4971888;28;20031;-62
2022/11/20 01:10:31;;;;;;;3.15;1.30;;;;;;;;;;4985805;28;20041;-61
2022/11/20 01:15:41;;;;;;;2.92;1.02;;;;;;;;;;4978073;28;20396;-61
2022/11/20 01:18:08;;;;;;;7.20;1.25;;;;;;;;;;4985061;28;20087;-62
2022/11/20 01:20:37;;;;;;;8.80;1.05;;;;;;;;;;4973004;28;20039;-61
2022/11/20 01:23:04;;;;;;;4.40;0.85;;;;;;;;;;4984533;28;20023;-61
2022/11/20 01:25:30;;;;;;;5.28;1.02;;;;;;;;;;4979586;28;20088;-61
2022/11/20 01:27:56;;;;;;;3.63;1.17;;;;;;;;;;4983374;28;20026;-62
2022/11/20 01:30:22;;;;;;;1.50;0.90;;;;;;;;;;4972500;28;20489;-61
2022/11/20 01:32:48;;;;;;;4.82;0.88;;;;;;;;;;4985443;28;20022;-61
2022/11/20 01:35:14;;;;;;;2.28;1.00;;;;;;;;;;4977686;28;20031;-61
2022/11/20 01:37:40;;;;;;;1.38;0.80;;;;;;;;;;4978346;28;20392;-62
2022/11/20 01:40:07;;;;;;;1.58;0.88;;;;;;;;;;4984222;28;20069;-61
2022/11/20 01:45:36;;;;;;;1.58;0.75;;;;;;;;;;4981481;28;20508;-62
2022/11/20 01:48:02;;;;;;;2.45;0.70;;;;;;;;;;4986860;28;20125;-62
2022/11/20 01:50:29;;;;;;;1.52;0.77;;;;;;;;;;4987577;28;20038;-61
2022/11/20 01:53:03;;;;;;;0.82;0.40;;;;;;;;;;4978630;28;20033;-61
2022/11/20 01:55:31;;;;;;;2.70;0.60;;;;;;;;;;4980036;28;20027;-61
2022/11/20 01:57:58;;;;;;;1.25;0.60;;;;;;;;;;4979496;28;20054;-61
2022/11/20 02:00:24;;;;;;;0.68;0.50;;;;;;;;;;4981041;28;20388;-61
2022/11/20 02:03:07;;;;;;;1.15;0.45;;;;;;;;;;4980645;28;20034;-61
2022/11/20 02:05:33;;;;;;;1.20;0.50;;;;;;;;;;4979177;28;20034;-62
2022/11/20 02:08:00;;;;;;;0.90;0.40;;;;;;;;;;4980593;28;20121;-61
2022/11/20 02:10:27;;;;;;;1.90;0.40;;;;;;;;;;4980517;28;20039;-61
2022/11/20 02:15:38;;;;;;;1.30;0.43;;;;;;;;;;4980156;28;20027;-62
2022/11/20 02:18:06;;;;;;;2.25;0.40;;;;;;;;;;4984059;28;20022;-61
2022/11/20 02:20:32;;;;;;;2.35;0.43;;;;;;;;;;4982377;28;20088;-61
2022/11/20 02:23:01;;;;;;;1.85;0.28;;;;;;;;;;4987382;28;20055;-61
2022/11/20 02:25:28;;;;;;;0.73;0.28;;;;;;;;;;4980496;28;20493;-61
2022/11/20 02:27:54;;;;;;;3.90;0.40;;;;;;;;;;4983952;28;20033;-62
2022/11/20 02:30:20;;;;;;;2.35;0.32;;;;;;;;;;4976937;28;20084;-61
2022/11/20 02:32:46;;;;;;;0.70;0.28;;;;;;;;;;4988324;28;20109;-62
2022/11/20 02:35:18;;;;;;;0.70;0.30;;;;;;;;;;4978516;28;20032;-61
2022/11/20 02:37:45;;;;;;;1.92;0.20;;;;;;;;;;4981560;28;20361;-62
2022/11/20 02:40:11;;;;;;;0.73;0.30;;;;;;;;;;4986403;28;20062;-61
2022/11/20 02:42:38;;;;;;;0.45;0.15;;;;;;;;;;4975307;28;20103;-61
2022/11/20 02:45:05;;;;;;;0.75;0.35;;;;;;;;;;4987325;28;20045;-61
2022/11/20 02:47:31;;;;;;;0.98;0.28;;;;;;;;;;4980492;28;20034;-61
2022/11/20 02:49:57;;;;;;;0.60;0.25;;;;;;;;;;4980058;28;20033;-61
2022/11/20 02:52:24;;;;;;;2.58;0.30;;;;;;;;;;4987375;28;20109;-61
2022/11/20 02:54:50;;;;;;;0.52;0.30;;;;;;;;;;4975256;28;20487;-61
2022/11/20 02:57:16;;;;;;;0.20;0.20;;;;;;;;;;4985411;28;20034;-61
2022/11/20 02:59:42;;;;;;;1.15;0.30;;;;;;;;;;4981394;28;20022;-62
2022/11/20 03:02:08;;;;;;;0.75;0.43;;;;;;;;;;4977300;28;20023;-61
2022/11/20 03:04:34;;;;;;;1.98;0.40;;;;;;;;;;4987839;28;20050;-62
2022/11/20 03:07:00;;;;;;;1.25;0.40;;;;;;;;;;4975819;28;20068;-61
2022/11/20 03:09:26;;;;;;;2.03;0.50;;;;;;;;;;4984371;28;20031;-61
2022/11/20 03:11:53;;;;;;;2.65;1.05;;;;;;;;;;4982059;28;20018;-61
2022/11/20 03:14:19;;;;;;;7.38;0.98;;;;;;;;;;4977367;28;20030;-61
2022/11/20 03:16:45;;;;;;;5.43;0.80;;;;;;;;;;4988080;28;20031;-62
2022/11/20 03:19:11;;;;;;;4.72;1.25;;;;;;;;;;4986448;28;20097;-61
2022/11/20 03:21:38;;;;;;;9.07;1.23;;;;;;;;;;4980251;28;20038;-61
2022/11/20 03:24:04;;;;;;;10.75;1.90;;;;;;;;;;4991038;28;20030;-61
2022/11/20 03:26:30;;;;;;;13.57;2.85;;;;;;;;;;4975583;28;20058;-62
2022/11/20 03:28:57;;;;;;;22.42;3.00;;;;;;;;;;4987435;28;20497;-61
2022/11/20 03:31:28;;;;;;;34.30;5.80;;;;;;;;;;4978182;28;20084;-61
2022/11/20 03:33:56;;;;;;;36.10;4.70;;;;;;;;;;4980541;28;20464;-62
2022/11/20 03:36:22;;;;;;;32.50;5.57;;;;;;;;;;4985624;28;20553;-61
2022/11/20 03:38:48;;;;;;;46.25;6.13;;;;;;;;;;4974559;28;20027;-61
2022/11/20 03:41:19;;;;;;;57.90;7.40;;;;;;;;;;4986002;28;20080;-61
2022/11/20 03:43:52;;;;;;;41.55;6.15;;;;;;;;;;4980375;28;20052;-61
2022/11/20 03:46:18;;;;;;;33.35;4.80;;;;;;;;;;4987227;28;20034;-62
2022/11/20 03:48:44;;;;;;;35.67;5.22;;;;;;;;;;4988737;28;20112;-61
2022/11/20 03:51:12;;;;;;;41.33;5.63;;;;;;;;;;4987618;28;20026;-61
2022/11/20 03:53:38;;;;;;;44.45;4.97;;;;;;;;;;4988881;28;20034;-61
2022/11/20 03:56:04;;;;;;;36.33;5.13;;;;;;;;;;4990179;28;20030;-62
2022/11/20 03:58:31;;;;;;;26.25;4.45;;;;;;;;;;4987351;28;20023;-61
2022/11/20 04:00:57;;;;;;;31.77;5.90;;;;;;;;;;4986921;28;20061;-62
2022/11/20 04:03:23;;;;;;;34.45;4.07;;;;;;;;;;4986939;28;20093;-61
2022/11/20 04:05:49;;;;;;;31.85;4.85;;;;;;;;;;4981114;28;20125;-62
2022/11/20 04:08:15;;;;;;;45.03;5.30;;;;;;;;;;4979114;28;20023;-61
2022/11/20 04:10:41;;;;;;;34.38;4.95;;;;;;;;;;4978760;28;20027;-61
2022/11/20 04:13:07;;;;;;;38.00;5.13;;;;;;;;;;4982036;28;20025;-61
2022/11/20 04:15:33;;;;;;;40.75;6.82;;;;;;;;;;4986911;28;20403;-62
2022/11/20 04:17:59;;;;;;;22.52;4.40;;;;;;;;;;4980058;28;20030;-62
2022/11/20 04:20:25;;;;;;;35.13;5.25;;;;;;;;;;4983991;28;20026;-61
2022/11/20 04:22:54;;;;;;;33.00;4.47;;;;;;;;;;4988665;28;20091;-61
2022/11/20 04:25:20;;;;;;;32.60;4.55;;;;;;;;;;4975409;28;20092;-61
2022/11/20 04:27:46;;;;;;;39.33;4.70;;;;;;;;;;4982011;28;20029;-61
2022/11/20 04:30:12;;;;;;;36.33;4.80;;;;;;;;;;4981449;28;20117;-61
2022/11/20 04:32:39;;;;;;;28.27;4.18;;;;;;;;;;4975217;28;20399;-61
2022/11/20 04:35:05;;;;;;;38.08;5.05;;;;;;;;;;4986400;28;20035;-61
2022/11/20 04:37:31;;;;;;;24.60;4.28;;;;;;;;;;4976670;28;20023;-62
2022/11/20 04:39:57;;;;;;;33.92;4.50;;;;;;;;;;4980228;28;20062;-61
2022/11/20 04:42:29;;;;;;;27.00;4.80;;;;;;;;;;4983722;28;20079;-61
2022/11/20 04:44:56;;;;;;;35.95;4.38;;;;;;;;;;4973396;28;20496;-61
2022/11/20 04:47:22;;;;;;;31.05;5.18;;;;;;;;;;4985363;28;20026;-61
2022/11/20 04:49:48;;;;;;;35.38;5.32;;;;;;;;;;4978577;28;20391;-61
2022/11/20 04:52:14;;;;;;;41.70;5.63;;;;;;;;;;4978412;28;20027;-62
2022/11/20 04:54:40;;;;;;;36.97;5.18;;;;;;;;;;4985606;28;20411;-62
2022/11/20 04:57:06;;;;;;;41.85;5.30;;;;;;;;;;4973438;28;20027;-61
2022/11/20 04:59:32;;;;;;;49.67;6.50;;;;;;;;;;4983974;28;20515;-61
2022/11/20 05:01:58;;;;;;;29.52;5.70;;;;;;;;;;4972180;28;20023;-61
2022/11/20 05:04:24;;;;;;;37.95;5.82;;;;;;;;;;4983024;28;20046;-61
2022/11/20 05:06:51;;;;;;;41.00;6.20;;;;;;;;;;4978584;28;20121;-62
2022/11/20 05:09:17;;;;;;;39.90;5.97;;;;;;;;;;4973731;28;20022;-62
2022/11/20 05:11:43;;;;;;;45.58;6.57;;;;;;;;;;4982773;28;20030;-61
2022/11/20 05:14:09;;;;;;;32.03;5.65;;;;;;;;;;4980301;28;20038;-61
2022/11/20 05:16:35;;;;;;;41.05;6.95;;;;;;;;;;4985300;28;20535;-62
2022/11/20 05:19:02;;;;;;;47.92;6.30;;;;;;;;;;4987734;28;20030;-61
2022/11/20 05:21:30;;;;;;;35.88;6.60;;;;;;;;;;4986818;28;20018;-62
2022/11/20 05:23:56;;;;;;;36.25;5.30;;;;;;;;;;4985190;28;20042;-61
2022/11/20 05:26:22;;;;;;;37.30;7.68;;;;;;;;;;4989248;28;20031;-62
2022/11/20 05:28:49;;;;;;;50.63;9.25;;;;;;;;;;4983702;28;20030;-62
2022/11/20 05:31:16;;;;;;;36.28;7.07;;;;;;;;;;4985929;28;20082;-62
2022/11/20 05:33:43;;;;;;;43.92;6.85;;;;;;;;;;4976456;28;20076;-61
2022/11/20 05:36:10;;;;;;;46.58;6.68;;;;;;;;;;4978936;28;20072;-61
2022/11/20 05:38:36;;;;;;;54.88;7.43;;;;;;;;;;4983795;28;20119;-61
2022/11/20 05:41:06;;;;;;;52.08;8.02;;;;;;;;;;4974666;28;20366;-61
2022/11/20 05:43:36;;;;;;;52.88;7.85;;;;;;;;;;4978415;28;20030;-61
2022/11/20 05:46:02;;;;;;;39.35;6.60;;;;;;;;;;4984369;28;20022;-61
2022/11/20 05:48:28;;;;;;;49.72;8.38;;;;;;;;;;4985679;28;20035;-61
2022/11/20 05:50:55;;;;;;;45.03;7.40;;;;;;;;;;4976324;28;20038;-61
2022/11/20 05:53:21;;;;;;;44.92;7.55;;;;;;;;;;4988949;28;20018;-62
2022/11/20 05:55:47;;;;;;;46.05;8.05;;;;;;;;;;4979694;28;20026;-61
2022/11/20 05:58:13;;;;;;;47.22;7.72;;;;;;;;;;4991003;28;20026;-60
2022/11/20 06:00:39;;;;;;;56.45;7.75;;;;;;;;;;4984944;28;20022;-61
2022/11/20 06:03:05;;;;;;;47.33;6.68;;;;;;;;;;4991347;28;20054;-62
2022/11/20 06:05:31;;;;;;;48.50;8.40;;;;;;;;;;4991802;28;20088;-61
2022/11/20 06:07:57;;;;;;;58.15;9.95;;;;;;;;;;4992218;28;20034;-60
2022/11/20 06:10:23;;;;;;;51.25;8.15;;;;;;;;;;4991961;28;20091;-61
2022/11/20 06:12:49;;;;;;;43.03;5.80;;;;;;;;;;4990159;28;20038;-61
2022/11/20 06:15:15;;;;;;;44.35;7.15;;;;;;;;;;4988665;28;20038;-61
2022/11/20 06:17:41;;;;;;;63.80;7.85;;;;;;;;;;4983723;28;20031;-61
2022/11/20 06:20:08;;;;;;;41.40;8.65;;;;;;;;;;4988851;28;20041;-61
2022/11/20 06:22:34;;;;;;;41.00;6.75;;;;;;;;;;4988895;28;20450;-61
2022/11/20 06:25:00;;;;;;;44.63;7.15;;;;;;;;;;4988847;28;20041;-61
2022/11/20 06:27:27;;;;;;;41.20;7.93;;;;;;;;;;4985351;28;20035;-61
2022/11/20 06:29:53;;;;;;;46.80;7.72;;;;;;;;;;4988588;28;20027;-61
2022/11/20 06:32:19;;;;;;;44.83;7.47;;;;;;;;;;4988817;28;20041;-61
2022/11/20 06:34:45;;;;;;;45.85;7.43;;;;;;;;;;4986163;28;20151;-61
2022/11/20 06:37:11;;;;;;;47.13;6.30;;;;;;;;;;4987218;28;20075;-61
2022/11/20 06:39:37;;;;;;;53.70;8.07;;;;;;;;;;4985386;28;20400;-61
2022/11/20 06:42:03;;;;;;;48.13;7.97;;;;;;;;;;4986594;28;20031;-61
2022/11/20 06:44:29;;;;;;;38.97;6.90;;;;;;;;;;4986799;28;20492;-61
2022/11/20 06:46:56;;;;;;;54.33;8.23;;;;;;;;;;4990299;28;20407;-61
2022/11/20 06:49:22;;;;;;;50.95;7.78;;;;;;;;;;4986542;28;20026;-61
2022/11/20 06:51:48;;;;;;;43.08;6.78;;;;;;;;;;4984203;28;20073;-61
2022/11/20 06:54:14;;;;;;;45.95;8.00;;;;;;;;;;4985683;28;20030;-61
2022/11/20 06:56:41;;;;;;;60.60;7.60;;;;;;;;;;4984691;28;20079;-61
2022/11/20 06:59:07;;;;;;;52.63;8.43;;;;;;;;;;4984804;28;20101;-61
2022/11/20 07:01:34;;;;;;;46.55;7.53;;;;;;;;;;4983914;28;20105;-61
2022/11/20 07:04:00;;;;;;;46.58;8.30;;;;;;;;;;4985105;28;20050;-61
2022/11/20 07:06:27;;;;;;;60.00;8.10;;;;;;;;;;4987607;28;20114;-61
2022/11/20 07:08:53;;;;;;;42.22;8.32;;;;;;;;;;4988201;28;20534;-61
2022/11/20 07:11:19;;;;;;;47.97;7.93;;;;;;;;;;4986850;28;20026;-61
2022/11/20 07:13:45;;;;;;;52.00;9.65;;;;;;;;;;4985470;28;20110;-61
2022/11/20 07:16:11;;;;;;;46.75;7.63;;;;;;;;;;4982479;28;20449;-61
2022/11/20 07:18:38;;;;;;;48.97;7.68;;;;;;;;;;4989714;28;20023;-61
2022/11/20 07:21:05;;;;;;;47.70;8.57;;;;;;;;;;4986697;28;20412;-61
2022/11/20 07:23:31;;;;;;;42.33;6.97;;;;;;;;;;5003224;28;20039;-61
2022/11/20 07:25:57;;;;;;;51.10;8.43;;;;;;;;;;4989238;28;20038;-61
2022/11/20 07:28:24;;;;;;;34.40;6.00;;;;;;;;;;4985769;28;20065;-61
2022/11/20 07:30:53;;;;;;;48.08;8.85;;;;;;;;;;4988491;28;20030;-61
2022/11/20 07:33:20;;;;;;;42.38;7.68;;;;;;;;;;4987224;28;20159;-61
2022/11/20 07:35:46;;;;;;;42.25;5.63;;;;;;;;;;4976399;28;20041;-61
2022/11/20 07:38:12;;;;;;;37.25;6.60;;;;;;;;;;4986733;28;20041;-61
2022/11/20 07:40:38;;;;;;;35.50;6.50;;;;;;;;;;4978312;28;20036;-60
2022/11/20 07:43:04;;;;;;;40.15;5.47;;;;;;;;;;4982023;28;20500;-60
2022/11/20 07:45:30;;;;;;;32.17;5.68;;;;;;;;;;4977542;28;20072;-61
2022/11/20 07:47:56;;;;;;;35.10;5.50;;;;;;;;;;4981432;28;20461;-61
2022/11/20 07:50:22;;;;;;;42.42;6.63;;;;;;;;;;4976130;28;20031;-63
2022/11/20 07:52:48;;;;;;;48.30;8.25;;;;;;;;;;4971988;28;20054;-61
2022/11/20 07:55:15;;;;;;;45.92;8.20;;;;;;;;;;4972150;28;20080;-61
2022/11/20 07:57:41;;;;;;;38.33;5.88;;;;;;;;;;4975055;28;20069;-61
2022/11/20 08:00:08;;;;;;;49.38;6.93;;;;;;;;;;4987957;28;20030;-60
2022/11/20 08:02:41;;;;;;;42.83;7.70;;;;;;;;;;4989574;28;20084;-61
2022/11/20 08:05:08;;;;;;;43.33;7.32;;;;;;;;;;4983965;28;20081;-61
2022/11/20 08:07:42;;;;;;;34.80;6.90;;;;;;;;;;4981808;28;20035;-61
2022/11/20 08:10:09;;;;;;;36.17;6.97;;;;;;;;;;4977790;28;20038;-61
2022/11/20 08:15:20;;;;;;;44.83;7.50;;;;;;;;;;4982810;28;20388;-61
2022/11/20 08:17:46;;;;;;;44.22;6.80;;;;;;;;;;4989516;28;20502;-61
2022/11/20 08:20:12;;;;;;;30.48;6.13;;;;;;;;;;4978082;28;20030;-60
2022/11/20 08:22:38;;;;;;;39.45;6.75;;;;;;;;;;4980296;28;20027;-61
2022/11/20 08:25:04;;;;;;;32.78;5.30;;;;;;;;;;4990334;28;20117;-61
2022/11/20 08:27:32;;;;;;;27.35;4.53;;;;;;;;;;4982629;28;20034;-61
2022/11/20 08:29:58;;;;;;;28.75;5.30;;;;;;;;;;4980385;28;20037;-61
2022/11/20 08:32:24;;;;;;;36.28;5.35;;;;;;;;;;4983045;28;20030;-61
2022/11/20 08:34:50;;;;;;;30.10;6.10;;;;;;;;;;4976902;28;20026;-61
2022/11/20 08:37:16;;;;;;;38.10;6.25;;;;;;;;;;4985314;28;20022;-60
2022/11/20 08:39:42;;;;;;;43.97;5.72;;;;;;;;;;4977452;28;20069;-61
2022/11/20 08:42:08;;;;;;;23.85;5.05;;;;;;;;;;4978847;28;20035;-61
2022/11/20 08:44:34;;;;;;;22.42;3.95;;;;;;;;;;4975262;28;20034;-60
2022/11/20 08:47:00;;;;;;;24.40;3.83;;;;;;;;;;4983254;28;20510;-60
2022/11/20 08:49:27;;;;;;;18.20;3.15;;;;;;;;;;4976271;28;20084;-60
2022/11/20 08:51:54;;;;;;;22.00;4.00;;;;;;;;;;4972708;28;20023;-60
2022/11/20 08:54:21;;;;;;;16.92;3.80;;;;;;;;;;4979603;28;20042;-61
2022/11/20 08:56:48;;;;;;;19.05;3.85;;;;;;;;;;4981467;28;20354;-61
2022/11/20 08:59:14;;;;;;;26.95;4.95;;;;;;;;;;4987541;28;20014;-60
2022/11/20 09:01:40;;;;;;;23.48;5.47;;;;;;;;;;4981877;28;20014;-60
2022/11/20 09:04:06;;;;;;;22.55;4.85;;;;;;;;;;4975590;28;20130;-60
2022/11/20 09:06:32;;;;;;;39.63;5.53;;;;;;;;;;4984729;28;20021;-60
2022/11/20 09:08:58;;;;;;;32.42;6.53;;;;;;;;;;4981188;28;20114;-60
2022/11/20 09:11:24;;;;;;;26.48;4.63;;;;;;;;;;4978907;28;20023;-62
2022/11/20 09:13:51;;;;;;;38.10;6.55;;;;;;;;;;4973945;28;20557;-61
2022/11/20 09:16:17;;;;;;;38.03;6.85;;;;;;;;;;4985447;28;20023;-60
2022/11/20 09:18:43;;;;;;;46.90;6.32;;;;;;;;;;4987013;28;20026;-61
2022/11/20 09:21:10;;;;;;;38.40;5.65;;;;;;;;;;4990361;28;20035;-60
2022/11/20 09:23:37;;;;;;;32.22;6.65;;;;;;;;;;4986712;28;20034;-60
2022/11/20 09:26:07;;;;;;;28.88;5.40;;;;;;;;;;4983612;28;20047;-60
2022/11/20 09:28:33;;;;;;;35.75;6.60;;;;;;;;;;4987117;28;20410;-60
2022/11/20 09:30:59;;;;;;;42.38;5.90;;;;;;;;;;4984697;28;20160;-60
2022/11/20 09:33:26;;;;;;;32.38;5.55;;;;;;;;;;4982863;28;20038;-60
2022/11/20 09:35:52;;;;;;;44.28;6.18;;;;;;;;;;4990676;28;20032;-60
2022/11/20 09:38:18;;;;;;;34.92;5.53;;;;;;;;;;4990221;28;20112;-61
2022/11/20 09:40:48;;;;;;;42.00;7.75;;;;;;;;;;4992149;28;20047;-61
2022/11/20 09:43:17;;;;;;;32.17;6.03;;;;;;;;;;4989465;28;20026;-60
2022/11/20 09:46:01;;;;;;;32.78;6.75;;;;;;;;;;4987857;28;20022;-60
2022/11/20 09:48:33;;;;;;;34.05;6.30;;;;;;;;;;4991179;28;20031;-60
2022/11/20 09:51:21;;;;;;;31.40;7.57;;;;;;;;;;4989757;28;20035;-68
2022/11/20 09:54:07;;;;;;;37.53;5.72;;;;;;;;;;4991696;28;20031;-65
2022/11/20 09:56:34;;;;;;;35.30;5.78;;;;;;;;;;4994367;28;20023;-61
2022/11/20 09:59:02;;;;;;;28.08;5.05;;;;;;;;;;4982690;28;20019;-61
2022/11/20 10:01:33;;;;;;;28.30;4.63;;;;;;;;;;4985122;28;20495;-61
2022/11/20 10:04:13;;;;;;;29.40;5.18;;;;;;;;;;4988060;28;20054;-62
2022/11/20 10:06:48;;;;;;;23.25;4.53;;;;;;;;;;4983910;28;20087;-61
2022/11/20 10:09:14;;;;;;;21.02;4.18;;;;;;;;;;4984530;28;20117;-61
2022/11/20 10:11:42;;;;;;;26.17;5.28;;;;;;;;;;4980740;28;20019;-61
2022/11/20 10:14:28;;;;;;;22.05;4.85;;;;;;;;;;4987961;28;20034;-61
2022/11/20 10:17:03;;;;;;;27.42;4.63;;;;;;;;;;4982572;28;20043;-61
2022/11/20 10:19:42;;;;;;;27.85;5.65;;;;;;;;;;4976778;28;20058;-61
2022/11/20 10:22:20;;;;;;;30.13;4.40;;;;;;;;;;4985817;28;20053;-61
2022/11/20 10:24:46;;;;;;;20.50;4.55;;;;;;;;;;4987735;28;20110;-61
2022/11/20 10:27:28;;;;;;;27.90;4.53;;;;;;;;;;4986397;28;20026;-61
2022/11/20 10:30:01;;;;;;;29.77;5.95;;;;;;;;;;4979550;28;20129;-61
2022/11/20 10:32:31;;;;;;;26.40;4.40;;;;;;;;;;4982969;28;20037;-61
2022/11/20 10:34:57;;;;;;;29.10;4.63;;;;;;;;;;4985236;28;20498;-62
2022/11/20 10:37:25;;;;;;;27.00;5.30;;;;;;;;;;4979371;28;20059;-61
2022/11/20 10:40:04;;;;;;;35.08;5.20;;;;;;;;;;4987448;28;20026;-61
2022/11/20 10:42:35;;;;;;;27.08;4.70;;;;;;;;;;4983847;28;20031;-61
2022/11/20 10:45:24;;;;;;;27.15;4.45;;;;;;;;;;4980312;28;20482;-61
2022/11/20 10:47:51;;;;;;;29.77;6.43;;;;;;;;;;5037890;28;20046;-61
2022/11/20 10:50:19;;;;;;;33.85;4.90;;;;;;;;;;5041562;28;20052;-62
2022/11/20 10:52:51;;;;;;;35.78;4.68;;;;;;;;;;5045909;28;20033;-61
2022/11/20 10:55:36;;;;;;;34.20;5.68;;;;;;;;;;5042525;28;20541;-61
2022/11/20 10:58:15;;;;;;;29.80;5.57;;;;;;;;;;5045007;28;20033;-61
2022/11/20 11:00:41;;;;;;;33.75;5.72;;;;;;;;;;5045998;28;20033;-61
2022/11/20 11:03:21;;;;;;;22.88;3.72;;;;;;;;;;5047175;28;20519;-61
2022/11/20 11:05:50;;;;;;;25.83;4.60;;;;;;;;;;5042644;28;20047;-61
2022/11/20 11:08:18;;;;;;;18.02;4.00;;;;;;;;;;5044210;28;20076;-61
2022/11/20 11:10:51;;;;;;;31.17;4.68;;;;;;;;;;5047066;28;20474;-61
2022/11/20 11:13:24;;;;;;;24.92;4.65;;;;;;;;;;5046680;28;20407;-61
2022/11/20 11:15:51;;;;;;;22.60;3.58;;;;;;;;;;5046593;28;20082;-61
2022/11/20 11:18:26;;;;;;;22.75;4.85;;;;;;;;;;5047958;28;20033;-61
2022/11/20 11:20:53;;;;;;;23.75;3.67;;;;;;;;;;5049106;28;20040;-61
2022/11/20 11:23:37;;;;;;;22.73;4.88;;;;;;;;;;5046730;28;20041;-62
2022/11/20 11:26:05;;;;;;;22.35;4.53;;;;;;;;;;4978320;28;20121;-60
2022/11/20 11:28:31;;;;;;;22.73;4.18;;;;;;;;;;4973980;28;20053;-60
2022/11/20 11:30:58;;;;;;;23.20;5.15;;;;;;;;;;4976802;28;20035;-60
2022/11/20 11:33:24;;;;;;;25.58;4.88;;;;;;;;;;4975183;28;20046;-61
2022/11/20 11:35:58;;;;;;;30.67;5.35;;;;;;;;;;4977997;28;20030;-60
2022/11/20 11:38:42;;;;;;;24.30;3.40;;;;;;;;;;4977506;28;20503;-60
2022/11/20 11:41:12;;;;;;;20.85;3.70;;;;;;;;;;4979964;28;20046;-60
2022/11/20 11:46:29;;;;;;;30.35;5.53;;;;;;;;;;4975225;28;20066;-61
2022/11/20 11:48:58;;;;;;;22.17;4.43;;;;;;;;;;4975808;28;20030;-60
2022/11/20 11:51:28;;;;;;;21.98;4.80;;;;;;;;;;4978365;28;20512;-60
2022/11/20 11:53:55;;;;;;;29.08;5.38;;;;;;;;;;4981373;28;20120;-60
2022/11/20 11:56:22;;;;;;;20.92;3.80;;;;;;;;;;4977877;28;20053;-60
2022/11/20 11:58:49;;;;;;;27.50;4.20;;;;;;;;;;4978103;28;20117;-60
2022/11/20 12:01:21;;;;;;;22.80;3.58;;;;;;;;;;4977594;28;20449;-60
2022/11/20 12:04:17;;;;;;;23.00;4.13;;;;;;;;;;4979706;28;20046;-61
2022/11/20 12:06:50;;;;;;;25.35;4.63;;;;;;;;;;4988012;28;20051;-61
2022/11/20 12:09:19;;;;;;;31.25;4.65;;;;;;;;;;4977295;28;20416;-61
2022/11/20 12:11:53;;;;;;;20.77;3.50;;;;;;;;;;4974067;28;20092;-60
2022/11/20 12:14:23;;;;;;;21.20;3.80;;;;;;;;;;4976250;28;20042;-61
2022/11/20 12:16:50;;;;;;;18.50;3.50;;;;;;;;;;4972198;28;20023;-60
2022/11/20 12:19:16;;;;;;;29.08;4.25;;;;;;;;;;4974378;28;20507;-60
2022/11/20 12:21:48;;;;;;;19.40;3.05;;;;;;;;;;4970920;28;20113;-60
2022/11/20 12:24:30;;;;;;;35.03;4.40;;;;;;;;;;4973089;28;20045;-60
2022/11/20 12:26:56;;;;;;;19.17;3.70;;;;;;;;;;4973968;28;20026;-67
2022/11/20 12:29:43;;;;;;;23.42;4.88;;;;;;;;;;4973826;28;20061;-61
2022/11/20 12:32:12;;;;;;;18.70;3.80;;;;;;;;;;4976489;28;20064;-60
2022/11/20 12:34:42;;;;;;;21.80;3.88;;;;;;;;;;4972714;28;20491;-60
2022/11/20 12:37:17;;;;;;;19.05;4.40;;;;;;;;;;4973757;28;20031;-60
2022/11/20 12:39:49;;;;;;;30.65;4.20;;;;;;;;;;4969282;28;20035;-60
2022/11/20 12:45:23;;;;;;;19.27;4.15;;;;;;;;;;4969215;28;20566;-60
2022/11/20 12:48:00;;;;;;;28.50;4.03;;;;;;;;;;4972043;28;20085;-60
2022/11/20 12:50:29;;;;;;;20.25;4.30;;;;;;;;;;4971991;28;20038;-60
2022/11/20 12:53:03;;;;;;;22.65;3.95;;;;;;;;;;4974572;28;20123;-60
2022/11/20 12:55:34;;;;;;;18.85;3.55;;;;;;;;;;4977815;28;20027;-60
2022/11/20 12:58:03;;;;;;;26.70;4.82;;;;;;;;;;4976417;28;20033;-60
2022/11/20 13:00:31;;;;;;;22.00;4.07;;;;;;;;;;4975861;28;20523;-60
2022/11/20 13:03:03;;;;;;;24.05;4.32;;;;;;;;;;4973871;28;20031;-60
2022/11/20 13:05:32;;;;;;;22.05;3.63;;;;;;;;;;4976755;28;20095;-60
2022/11/20 13:07:59;;;;;;;31.63;3.83;;;;;;;;;;4975008;28;20034;-60
2022/11/20 13:10:32;;;;;;;24.25;3.80;;;;;;;;;;4982182;28;20022;-60
2022/11/20 13:13:01;;;;;;;26.50;5.05;;;;;;;;;;4973972;28;20030;-60
2022/11/20 13:15:40;;;;;;;16.10;3.45;;;;;;;;;;4977031;28;20030;-60
2022/11/20 13:18:09;;;;;;;29.30;3.90;;;;;;;;;;4986381;28;20117;-60
2022/11/20 13:20:36;;;;;;;29.77;5.25;;;;;;;;;;4984816;28;20513;-59
2022/11/20 13:23:02;;;;;;;20.83;4.35;;;;;;;;;;4987165;28;20034;-60
2022/11/20 13:25:33;;;;;;;21.13;4.70;;;;;;;;;;4986148;28;20422;-60
2022/11/20 13:28:00;;;;;;;23.20;4.45;;;;;;;;;;4977765;28;20030;-60
2022/11/20 13:30:27;;;;;;;27.65;3.95;;;;;;;;;;4977879;28;20030;-60
2022/11/20 13:33:06;;;;;;;24.90;5.05;;;;;;;;;;4980758;28;20044;-60
2022/11/20 13:35:41;;;;;;;32.35;4.35;;;;;;;;;;4981923;28;20027;-60
2022/11/20 13:38:09;;;;;;;19.08;4.28;;;;;;;;;;4985702;28;20026;-60
2022/11/20 15:25:20;;;;;;;35.53;5.63;;;;;;;;;;5097120;27;20444;-64
2022/11/20 15:27:49;;;;;;;29.88;6.15;;;;;;;;;;5096067;28;20392;-65
2022/11/20 15:30:16;;;;;;;31.35;5.30;;;;;;;;;;5092732;28;20051;-64
2022/11/20 15:32:43;;;;;;;30.52;5.80;;;;;;;;;;5100583;28;20039;-64
2022/11/20 15:35:09;;;;;;;32.63;6.45;;;;;;;;;;5088830;28;20055;-64
2022/11/20 15:37:36;;;;;;;31.30;5.25;;;;;;;;;;5088116;28;20024;-64
2022/11/20 15:40:03;;;;;;;32.35;5.18;;;;;;;;;;5089961;28;20028;-63
2022/11/20 15:42:29;;;;;;;33.15;5.78;;;;;;;;;;5101375;28;20017;-64
2022/11/20 15:44:55;;;;;;;32.25;7.40;;;;;;;;;;5088181;28;20074;-64
2022/11/20 15:47:23;;;;;;;30.55;5.65;;;;;;;;;;5089171;28;20059;-64
2022/11/20 15:49:49;;;;;;;33.35;6.13;;;;;;;;;;5089186;28;20028;-64
2022/11/20 15:52:16;;;;;;;30.20;5.60;;;;;;;;;;5101418;28;20028;-65
2022/11/20 15:54:42;;;;;;;30.65;6.90;;;;;;;;;;5104643;28;20386;-64
2022/11/20 15:57:08;;;;;;;33.28;6.32;;;;;;;;;;5087774;28;20028;-64
2022/11/20 15:59:39;;;;;;;45.42;6.57;;;;;;;;;;5086361;28;20481;-66
2022/11/20 16:02:10;;;;;;;35.33;6.05;;;;;;;;;;5088931;28;20082;-64
2022/11/20 16:04:36;;;;;;;39.83;7.85;;;;;;;;;;5103855;28;20488;-64
2022/11/20 16:07:02;;;;;;;42.55;7.40;;;;;;;;;;5102074;28;20031;-63
2022/11/20 16:09:28;;;;;;;38.50;7.57;;;;;;;;;;5094953;28;20024;-64
2022/11/20 16:11:54;;;;;;;34.72;7.10;;;;;;;;;;5098336;28;20119;-64
2022/11/20 16:17:05;;;;;;;37.63;7.68;;;;;;;;;;5086346;28;20532;-64
2022/11/20 16:19:31;;;;;;;41.65;7.03;;;;;;;;;;5088000;28;20063;-64
2022/11/20 16:22:03;;;;;;;35.80;7.15;;;;;;;;;;5088116;28;20024;-64
2022/11/20 16:24:29;;;;;;;44.13;7.20;;;;;;;;;;5083130;28;20804;-64
2022/11/20 16:26:55;;;;;;;43.35;7.28;;;;;;;;;;5073465;28;20035;-64
2022/11/20 16:29:22;;;;;;;44.25;7.18;;;;;;;;;;5073235;28;20376;-67
2022/11/20 16:31:48;;;;;;;23.98;5.65;;;;;;;;;;5072028;28;20033;-67
2022/11/20 16:34:16;;;;;;;38.28;6.80;;;;;;;;;;5072689;28;20450;-67
2022/11/20 16:36:43;;;;;;;34.42;6.95;;;;;;;;;;5072278;28;20133;-67
2022/11/20 16:39:09;;;;;;;42.63;7.15;;;;;;;;;;5073203;28;20040;-67
2022/11/20 16:41:36;;;;;;;29.17;6.10;;;;;;;;;;5073206;28;20393;-67
2022/11/20 16:44:06;;;;;;;41.00;7.50;;;;;;;;;;5072458;28;20039;-67